Time;durP1;ratioP1;P1;durP2;ratioP2;P2;SDS_P1;SDS_P2;PMS_P1;PMS_P2;Temp;Humidity;BMP_temperature;BMP_pressure;BME280_temperature;BME280_humidity;BME280_pressure;Samples;Min_cycle;Max_cycle;Signal;HPM_P1;HPM_P2
2022/03/12 00:01:29;;;;;;;15.23;12.52;;;6.40;99.90;;;;;;5075043;28;20204;-69
2022/03/12 00:03:56;;;;;;;15.40;13.50;;;6.40;99.90;;;;;;5074246;28;20234;-70
2022/03/12 00:06:23;;;;;;;17.95;12.70;;;6.40;99.90;;;;;;5074203;28;20236;-69
2022/03/12 00:08:55;;;;;;;14.77;12.20;;;6.40;99.90;;;;;;5074355;28;20200;-69
2022/03/12 00:11:27;;;;;;;16.52;11.45;;;6.40;99.90;;;;;;5074923;28;20223;-69
2022/03/12 00:13:57;;;;;;;16.90;11.90;;;6.40;99.90;;;;;;5074541;28;20204;-68
2022/03/12 00:16:25;;;;;;;20.45;11.90;;;6.30;99.90;;;;;;5074416;28;20640;-70
2022/03/12 00:18:55;;;;;;;13.48;11.70;;;6.40;99.90;;;;;;5074824;28;20257;-69
2022/03/12 00:21:26;;;;;;;14.68;12.30;;;6.30;99.90;;;;;;5074372;28;20269;-69
2022/03/12 00:23:58;;;;;;;16.42;11.10;;;6.30;99.90;;;;;;5074411;28;20196;-68
2022/03/12 00:26:28;;;;;;;14.07;11.57;;;6.30;99.90;;;;;;5074681;28;20610;-69
2022/03/12 00:28:55;;;;;;;14.20;11.60;;;6.30;99.90;;;;;;5074747;28;20269;-69
2022/03/12 00:31:23;;;;;;;19.00;13.10;;;6.30;99.90;;;;;;5075035;28;20200;-69
2022/03/12 00:33:49;;;;;;;18.63;12.30;;;6.30;99.90;;;;;;5073767;28;20260;-69
2022/03/12 00:36:17;;;;;;;17.88;12.60;;;6.30;99.90;;;;;;5074983;28;20698;-70
2022/03/12 00:38:45;;;;;;;12.93;11.40;;;6.30;99.90;;;;;;5074798;28;20566;-69
2022/03/12 00:41:13;;;;;;;13.35;11.30;;;6.30;99.90;;;;;;5074498;28;20203;-69
2022/03/12 00:43:39;;;;;;;24.13;12.35;;;6.40;99.90;;;;;;5074605;28;20658;-69
2022/03/12 00:46:06;;;;;;;15.25;12.20;;;6.40;99.90;;;;;;5073992;28;20573;-69
2022/03/12 00:48:34;;;;;;;15.68;12.70;;;6.50;99.90;;;;;;5074291;28;20276;-68
2022/03/12 00:51:00;;;;;;;17.13;12.55;;;6.40;99.90;;;;;;5074261;28;20249;-69
2022/03/12 00:53:27;;;;;;;16.88;11.82;;;6.40;99.90;;;;;;5074002;28;20206;-68
2022/03/12 00:55:54;;;;;;;13.75;10.57;;;6.40;99.90;;;;;;5074441;28;20212;-68
2022/03/12 00:58:20;;;;;;;18.08;11.85;;;6.30;99.90;;;;;;5073915;28;20211;-69
2022/03/12 01:00:47;;;;;;;12.23;11.02;;;6.40;99.90;;;;;;5074065;28;20204;-69
2022/03/12 01:03:13;;;;;;;19.13;11.23;;;6.30;99.90;;;;;;5073826;28;20215;-68
2022/03/12 01:05:48;;;;;;;12.23;10.85;;;6.30;99.90;;;;;;5072666;28;20235;-69
2022/03/12 01:08:16;;;;;;;12.70;10.88;;;6.40;99.90;;;;;;5074602;28;20190;-69
2022/03/12 01:10:44;;;;;;;14.05;10.57;;;6.30;99.90;;;;;;5075060;28;20200;-69
2022/03/12 01:13:11;;;;;;;14.50;11.85;;;6.30;99.90;;;;;;5074490;28;20207;-68
2022/03/12 01:15:38;;;;;;;15.77;11.85;;;6.30;99.90;;;;;;5074200;28;20212;-69
2022/03/12 01:18:11;;;;;;;16.73;10.80;;;6.40;99.90;;;;;;5074593;28;20219;-69
2022/03/12 01:20:38;;;;;;;12.32;10.90;;;6.30;99.90;;;;;;5074317;28;20199;-70
2022/03/12 01:23:05;;;;;;;14.52;11.88;;;6.20;99.90;;;;;;5075183;28;20219;-68
2022/03/12 01:25:32;;;;;;;12.45;10.88;;;6.20;99.90;;;;;;5075411;28;20266;-69
2022/03/12 01:27:58;;;;;;;16.88;12.43;;;6.20;99.90;;;;;;5074662;28;20196;-69
2022/03/12 01:30:30;;;;;;;12.82;10.80;;;6.10;99.90;;;;;;5074891;28;20214;-69
2022/03/12 01:32:57;;;;;;;16.67;11.55;;;6.10;99.90;;;;;;5073197;28;20686;-69
2022/03/12 01:35:24;;;;;;;14.38;10.77;;;6.10;99.90;;;;;;5074573;28;20733;-69
2022/03/12 01:37:51;;;;;;;17.48;12.40;;;6.00;99.90;;;;;;5074099;28;20215;-69
2022/03/12 01:40:17;;;;;;;14.13;11.80;;;5.90;99.90;;;;;;5074627;28;20561;-69
2022/03/12 01:42:44;;;;;;;16.00;11.32;;;5.90;99.90;;;;;;5075446;28;20223;-69
2022/03/12 01:45:12;;;;;;;14.82;11.18;;;5.90;99.90;;;;;;5075126;28;20192;-69
2022/03/12 01:47:40;;;;;;;13.52;11.40;;;5.90;99.90;;;;;;5075282;28;20192;-69
2022/03/12 01:50:07;;;;;;;13.00;11.20;;;5.90;99.90;;;;;;5073387;28;20254;-69
2022/03/12 01:52:33;;;;;;;12.20;10.90;;;5.80;99.90;;;;;;5075391;28;20222;-69
2022/03/12 01:55:00;;;;;;;16.13;11.32;;;5.80;99.90;;;;;;5079527;28;20208;-68
2022/03/12 01:57:27;;;;;;;17.02;12.10;;;5.80;99.90;;;;;;5079329;28;20203;-69
2022/03/12 01:59:54;;;;;;;13.48;10.10;;;5.80;99.90;;;;;;5078244;28;20204;-68
2022/03/12 02:02:21;;;;;;;16.42;10.50;;;5.70;99.90;;;;;;5079333;28;20216;-68
2022/03/12 02:04:52;;;;;;;11.25;10.05;;;5.60;99.90;;;;;;5078308;28;20656;-68
2022/03/12 02:07:21;;;;;;;19.77;14.48;;;5.60;99.90;;;;;;5079354;28;20231;-68
2022/03/12 02:09:49;;;;;;;18.35;14.05;;;5.50;99.90;;;;;;5078454;28;20200;-68
2022/03/12 02:12:15;;;;;;;14.80;12.13;;;5.40;99.90;;;;;;5078736;28;20660;-68
2022/03/12 02:14:42;;;;;;;13.77;10.30;;;5.40;99.90;;;;;;5078412;28;20204;-68
2022/03/12 02:17:10;;;;;;;13.52;10.40;;;5.40;99.90;;;;;;5078471;28;20562;-68
2022/03/12 02:19:39;;;;;;;18.23;11.77;;;5.40;99.90;;;;;;5078314;28;20714;-71
2022/03/12 02:22:14;;;;;;;13.57;10.25;;;5.40;99.90;;;;;;5078228;28;20204;-68
2022/03/12 02:24:41;;;;;;;12.75;10.40;;;5.40;99.90;;;;;;5079067;28;20180;-68
2022/03/12 02:27:10;;;;;;;13.40;9.95;;;5.40;99.90;;;;;;5078675;28;20196;-69
2022/03/12 02:29:38;;;;;;;11.45;10.25;;;5.40;99.90;;;;;;5079424;28;20286;-68
2022/03/12 02:32:09;;;;;;;13.75;11.07;;;5.40;99.90;;;;;;5078930;28;20207;-69
2022/03/12 02:34:42;;;;;;;12.63;10.57;;;5.40;99.90;;;;;;5079995;28;20207;-70
2022/03/12 02:37:10;;;;;;;12.90;10.18;;;5.40;99.90;;;;;;5079145;28;20566;-69
2022/03/12 02:39:38;;;;;;;12.00;9.30;;;5.40;99.90;;;;;;5078984;28;20211;-69
2022/03/12 02:42:06;;;;;;;25.02;10.55;;;5.40;99.90;;;;;;5078335;28;20208;-68
2022/03/12 02:44:34;;;;;;;14.40;9.80;;;5.50;99.90;;;;;;5079020;28;20203;-68
2022/03/12 02:47:14;;;;;;;16.58;10.80;;;5.50;99.90;;;;;;5077077;28;20257;-69
2022/03/12 02:49:56;;;;;;;14.10;10.48;;;5.50;99.90;;;;;;5078907;28;20207;-69
2022/03/12 02:52:27;;;;;;;12.35;10.20;;;5.60;99.90;;;;;;5078627;28;20211;-69
2022/03/12 02:54:55;;;;;;;11.55;10.30;;;5.60;99.90;;;;;;5078375;28;20192;-69
2022/03/12 02:57:24;;;;;;;17.45;9.93;;;5.60;99.90;;;;;;5078235;28;20207;-69
2022/03/12 02:59:52;;;;;;;15.60;11.25;;;5.60;99.90;;;;;;5077019;28;20283;-69
2022/03/12 03:02:25;;;;;;;13.93;10.65;;;5.60;99.90;;;;;;5076402;28;20216;-68
2022/03/12 03:04:51;;;;;;;11.85;10.40;;;5.60;99.90;;;;;;5077338;28;20211;-69
2022/03/12 03:07:18;;;;;;;12.07;10.80;;;5.60;99.90;;;;;;5076646;28;20235;-69
2022/03/12 03:09:46;;;;;;;16.23;10.73;;;5.60;99.90;;;;;;5076665;28;20254;-69
2022/03/12 03:12:12;;;;;;;14.18;9.85;;;5.60;99.90;;;;;;5078391;28;20564;-69
2022/03/12 03:14:43;;;;;;;15.07;10.38;;;5.50;99.90;;;;;;5079098;28;20203;-69
2022/03/12 03:17:11;;;;;;;14.32;11.13;;;5.50;99.90;;;;;;5078192;28;20553;-69
2022/03/12 03:19:39;;;;;;;11.85;10.65;;;5.50;99.90;;;;;;5077646;28;20192;-69
2022/03/12 03:22:06;;;;;;;23.23;11.98;;;5.50;99.90;;;;;;5076177;28;20282;-69
2022/03/12 03:24:34;;;;;;;11.85;10.55;;;5.50;99.90;;;;;;5076651;28;20226;-69
2022/03/12 03:27:01;;;;;;;16.00;11.80;;;5.50;99.90;;;;;;5077201;28;20279;-69
2022/03/12 03:29:31;;;;;;;13.57;10.77;;;5.50;99.90;;;;;;5078043;28;20203;-69
2022/03/12 03:32:01;;;;;;;12.05;10.82;;;5.50;99.90;;;;;;5077883;28;20249;-69
2022/03/12 03:34:31;;;;;;;13.85;11.35;;;5.60;99.90;;;;;;5076554;28;20663;-69
2022/03/12 03:36:59;;;;;;;14.30;11.27;;;5.60;99.90;;;;;;5077185;28;20188;-68
2022/03/12 03:39:25;;;;;;;29.83;18.80;;;5.50;99.90;;;;;;5077768;28;20219;-68
2022/03/12 03:41:52;;;;;;;12.48;11.15;;;5.50;99.90;;;;;;5076546;28;20211;-68
2022/03/12 03:44:26;;;;;;;17.27;10.95;;;5.50;99.90;;;;;;5076478;28;20563;-68
2022/03/12 03:46:52;;;;;;;12.75;11.40;;;5.50;99.90;;;;;;5077541;28;20201;-69
2022/03/12 03:49:19;;;;;;;13.73;10.43;;;5.50;99.90;;;;;;5077080;28;20624;-68
2022/03/12 03:51:47;;;;;;;17.55;10.30;;;5.40;99.90;;;;;;5076842;28;20207;-68
2022/03/12 03:54:14;;;;;;;13.32;10.57;;;5.40;99.90;;;;;;5076974;28;20568;-68
2022/03/12 03:56:41;;;;;;;14.38;10.30;;;5.40;99.90;;;;;;5076755;28;20211;-68
2022/03/12 03:59:08;;;;;;;11.73;10.45;;;5.40;99.90;;;;;;5077119;28;20695;-68
2022/03/12 04:01:39;;;;;;;15.05;11.90;;;5.40;99.90;;;;;;5075955;28;20218;-69
2022/03/12 04:04:12;;;;;;;13.30;10.57;;;5.40;99.90;;;;;;5076667;28;20226;-68
2022/03/12 04:06:39;;;;;;;12.48;11.10;;;5.40;99.90;;;;;;5076781;28;20232;-68
2022/03/12 04:09:06;;;;;;;21.45;11.80;;;5.50;99.90;;;;;;5076762;28;20196;-69
2022/03/12 04:11:34;;;;;;;17.15;12.32;;;5.50;99.90;;;;;;5076816;28;20307;-69
2022/03/12 04:14:04;;;;;;;20.33;11.57;;;5.50;99.90;;;;;;5075687;28;20215;-68
2022/03/12 04:16:31;;;;;;;12.65;11.20;;;5.40;99.90;;;;;;5077054;28;20199;-69
2022/03/12 04:18:57;;;;;;;12.60;11.30;;;5.40;99.90;;;;;;5076717;28;20196;-69
2022/03/12 04:21:24;;;;;;;15.02;11.48;;;5.40;99.90;;;;;;5076687;28;20199;-68
2022/03/12 04:23:51;;;;;;;13.23;11.15;;;5.40;99.90;;;;;;5076277;28;20224;-68
2022/03/12 04:26:21;;;;;;;18.30;10.93;;;5.40;99.90;;;;;;5075882;28;20559;-68
2022/03/12 04:28:47;;;;;;;13.43;11.15;;;5.40;99.90;;;;;;5075111;28;20741;-68
2022/03/12 04:31:14;;;;;;;16.70;10.68;;;5.40;99.90;;;;;;5074097;28;20265;-67
2022/03/12 04:33:40;;;;;;;17.38;11.15;;;5.40;99.90;;;;;;5076056;28;20207;-67
2022/03/12 04:36:09;;;;;;;12.55;11.13;;;5.40;99.90;;;;;;5076698;28;20196;-68
2022/03/12 04:38:37;;;;;;;13.82;10.98;;;5.40;99.90;;;;;;5076209;28;20196;-69
2022/03/12 04:41:03;;;;;;;14.40;10.93;;;5.30;99.90;;;;;;5076895;28;20200;-69
2022/03/12 04:43:30;;;;;;;13.25;11.40;;;5.30;99.90;;;;;;5075957;28;20554;-70
2022/03/12 04:45:59;;;;;;;15.98;10.90;;;5.30;99.90;;;;;;5076662;28;20211;-69
2022/03/12 04:48:26;;;;;;;12.50;11.00;;;5.30;99.90;;;;;;5076725;28;20195;-69
2022/03/12 04:50:54;;;;;;;18.95;13.88;;;5.30;99.90;;;;;;5076284;28;20204;-69
2022/03/12 04:53:21;;;;;;;15.25;13.15;;;5.30;99.90;;;;;;5074981;28;20203;-69
2022/03/12 04:55:48;;;;;;;18.63;13.73;;;5.20;99.90;;;;;;5076907;28;20259;-69
2022/03/12 04:58:16;;;;;;;16.77;12.20;;;5.30;99.90;;;;;;5077078;28;20667;-69
2022/03/12 05:00:43;;;;;;;17.10;10.75;;;5.20;99.90;;;;;;5077363;28;20564;-70
2022/03/12 05:03:14;;;;;;;13.60;11.68;;;5.20;99.90;;;;;;5075590;28;20226;-69
2022/03/12 05:05:43;;;;;;;16.45;10.98;;;5.30;99.90;;;;;;5075484;28;20235;-69
2022/03/12 05:08:19;;;;;;;15.20;11.43;;;5.40;99.90;;;;;;5076517;28;20259;-68
2022/03/12 05:10:49;;;;;;;12.68;10.73;;;5.40;99.90;;;;;;5076319;28;20184;-70
2022/03/12 05:13:22;;;;;;;15.25;12.60;;;5.50;99.90;;;;;;5076742;28;20210;-69
2022/03/12 05:15:55;;;;;;;15.30;10.95;;;5.50;99.90;;;;;;5076721;28;20523;-69
2022/03/12 05:18:23;;;;;;;14.40;11.18;;;5.50;99.90;;;;;;5076540;28;20212;-68
2022/03/12 05:20:50;;;;;;;20.52;11.27;;;5.60;99.90;;;;;;5076236;28;20611;-69
2022/03/12 05:23:19;;;;;;;14.10;11.70;;;5.50;99.90;;;;;;5075972;28;20701;-68
2022/03/12 05:25:47;;;;;;;13.68;10.88;;;5.50;99.90;;;;;;5075483;28;20249;-69
2022/03/12 05:28:16;;;;;;;13.82;10.52;;;5.50;99.90;;;;;;5080188;28;20210;-68
2022/03/12 05:30:46;;;;;;;11.65;10.38;;;5.50;99.90;;;;;;5079878;28;20195;-69
2022/03/12 05:33:16;;;;;;;13.90;10.05;;;5.50;99.90;;;;;;5077926;28;20281;-70
2022/03/12 05:35:44;;;;;;;18.48;11.02;;;5.40;99.90;;;;;;5078839;28;20211;-69
2022/03/12 05:38:11;;;;;;;12.40;10.25;;;5.30;99.90;;;;;;5078538;28;20320;-69
2022/03/12 05:40:39;;;;;;;11.30;10.20;;;5.30;99.90;;;;;;5078056;28;20204;-70
2022/03/12 05:43:12;;;;;;;13.55;10.32;;;5.30;99.90;;;;;;5076965;28;20223;-69
2022/03/12 05:45:39;;;;;;;12.60;10.35;;;5.30;99.90;;;;;;5078627;28;20203;-69
2022/03/12 05:48:10;;;;;;;16.90;11.40;;;5.20;99.90;;;;;;5079100;28;20207;-69
2022/03/12 05:50:37;;;;;;;12.57;9.88;;;5.20;99.90;;;;;;5078329;28;20566;-70
2022/03/12 05:53:09;;;;;;;16.80;9.88;;;5.20;99.90;;;;;;5078690;28;20231;-68
2022/03/12 05:55:39;;;;;;;14.23;9.60;;;5.30;99.90;;;;;;5078463;28;20188;-68
2022/03/12 05:58:07;;;;;;;12.05;10.27;;;5.20;99.90;;;;;;5078155;28;20257;-68
2022/03/12 06:00:35;;;;;;;14.70;11.30;;;5.20;99.90;;;;;;5078114;28;20203;-68
2022/03/12 06:03:01;;;;;;;12.77;10.02;;;5.20;99.90;;;;;;5077712;28;20216;-69
2022/03/12 06:05:28;;;;;;;16.55;9.75;;;5.20;99.90;;;;;;5077761;28;20224;-69
2022/03/12 06:07:55;;;;;;;27.25;9.95;;;5.30;99.90;;;;;;5077983;28;20568;-69
2022/03/12 06:10:28;;;;;;;13.52;10.55;;;5.40;99.90;;;;;;5078419;28;20290;-69
2022/03/12 06:12:58;;;;;;;19.40;12.77;;;5.40;99.90;;;;;;5078930;28;20349;-69
2022/03/12 06:15:26;;;;;;;12.68;9.93;;;5.50;99.90;;;;;;5079342;28;20574;-69
2022/03/12 06:17:53;;;;;;;15.77;10.10;;;5.60;99.90;;;;;;5076890;28;20203;-68
2022/03/12 06:20:22;;;;;;;16.27;10.15;;;5.50;99.90;;;;;;5078166;28;20672;-69
2022/03/12 06:22:50;;;;;;;12.63;11.27;;;5.50;99.90;;;;;;5077312;28;20206;-69
2022/03/12 06:25:17;;;;;;;14.98;10.20;;;5.50;99.90;;;;;;5077517;28;20249;-69
2022/03/12 06:27:53;;;;;;;14.35;10.60;;;5.50;99.90;;;;;;5078695;28;20207;-69
2022/03/12 06:30:22;;;;;;;12.07;9.45;;;5.50;99.90;;;;;;5078806;28;20541;-69
2022/03/12 06:32:49;;;;;;;10.48;9.38;;;5.60;99.90;;;;;;5078505;28;20200;-69
2022/03/12 06:35:16;;;;;;;11.48;8.48;;;5.60;99.90;;;;;;5078199;28;20230;-69
2022/03/12 06:37:43;;;;;;;13.18;9.20;;;5.70;99.90;;;;;;5076924;28;20591;-69
2022/03/12 06:40:14;;;;;;;15.20;11.13;;;5.70;99.90;;;;;;5077833;28;20283;-69
2022/03/12 06:42:47;;;;;;;14.95;9.95;;;5.80;99.90;;;;;;5078383;28;20200;-69
2022/03/12 06:45:15;;;;;;;13.75;10.48;;;5.70;99.90;;;;;;5076864;28;20196;-69
2022/03/12 06:47:43;;;;;;;17.15;9.98;;;5.50;99.90;;;;;;5077260;28;20557;-69
2022/03/12 06:50:13;;;;;;;11.95;10.20;;;5.60;99.90;;;;;;5077815;28;20568;-69
2022/03/12 06:52:45;;;;;;;13.88;9.95;;;5.70;99.90;;;;;;5078987;28;20200;-69
2022/03/12 06:55:11;;;;;;;22.08;9.95;;;5.80;99.90;;;;;;5078292;28;20263;-70
2022/03/12 06:57:38;;;;;;;17.83;10.90;;;5.80;99.90;;;;;;5079518;28;20208;-69
2022/03/12 07:00:07;;;;;;;11.38;9.57;;;5.90;99.90;;;;;;5078022;28;20604;-69
2022/03/12 07:02:33;;;;;;;14.98;10.45;;;5.80;99.90;;;;;;5076889;28;20215;-69
2022/03/12 07:05:00;;;;;;;17.25;9.90;;;5.90;99.90;;;;;;5060716;28;20220;-69
2022/03/12 07:07:26;;;;;;;13.50;10.63;;;6.00;99.90;;;;;;5077266;28;20284;-70
2022/03/12 07:09:52;;;;;;;12.38;9.52;;;6.00;99.90;;;;;;5077905;28;20207;-69
2022/03/12 07:12:19;;;;;;;11.15;9.45;;;6.10;99.90;;;;;;5077522;28;20703;-69
2022/03/12 07:14:45;;;;;;;17.70;9.77;;;6.00;99.90;;;;;;5077683;28;20606;-69
2022/03/12 07:17:12;;;;;;;18.42;9.63;;;5.90;99.90;;;;;;5076343;28;20208;-68
2022/03/12 07:19:38;;;;;;;13.02;9.90;;;5.80;99.90;;;;;;5075918;28;20216;-69
2022/03/12 07:22:06;;;;;;;10.60;9.60;;;6.00;99.90;;;;;;5078149;28;20204;-69
2022/03/12 07:24:33;;;;;;;10.52;9.35;;;6.10;99.90;;;;;;5078161;28;20558;-69
2022/03/12 07:27:00;;;;;;;28.48;11.23;;;6.10;99.90;;;;;;5077322;28;20196;-69
2022/03/12 07:29:29;;;;;;;14.75;10.90;;;6.10;99.90;;;;;;5076898;28;20282;-69
2022/03/12 07:31:56;;;;;;;10.38;9.25;;;6.30;99.90;;;;;;5078885;28;20204;-69
2022/03/12 07:34:24;;;;;;;11.10;9.45;;;6.30;99.90;;;;;;5078171;28;20279;-69
2022/03/12 07:36:50;;;;;;;12.70;9.75;;;6.50;99.90;;;;;;5077265;28;20204;-68
2022/03/12 07:39:17;;;;;;;12.82;10.63;;;6.40;99.90;;;;;;5077390;28;20295;-68
2022/03/12 07:41:44;;;;;;;12.57;9.63;;;6.40;99.90;;;;;;5076825;28;20212;-68
2022/03/12 07:44:10;;;;;;;11.00;9.80;;;6.50;99.90;;;;;;5075947;28;20277;-68
2022/03/12 07:46:37;;;;;;;15.80;9.63;;;6.50;99.90;;;;;;5076384;28;20196;-68
2022/03/12 07:49:04;;;;;;;15.10;10.48;;;6.50;99.90;;;;;;5076604;28;20222;-69
2022/03/12 07:51:32;;;;;;;12.10;10.80;;;6.70;99.90;;;;;;5076956;28;20207;-68
2022/03/12 07:54:00;;;;;;;14.32;9.77;;;6.90;99.90;;;;;;5076101;28;20219;-68
2022/03/12 07:56:27;;;;;;;13.95;10.23;;;6.80;99.90;;;;;;5076770;28;20699;-68
2022/03/12 07:58:55;;;;;;;15.55;9.82;;;7.00;99.90;;;;;;5077728;28;20204;-69
2022/03/12 08:01:22;;;;;;;11.60;9.77;;;7.10;99.90;;;;;;5077586;28;20200;-69
2022/03/12 08:03:48;;;;;;;15.05;11.65;;;7.20;99.90;;;;;;5076641;28;20220;-69
2022/03/12 08:06:18;;;;;;;17.45;10.23;;;7.10;99.90;;;;;;5077075;28;20231;-70
2022/03/12 08:08:45;;;;;;;13.85;11.15;;;7.10;99.90;;;;;;5077056;28;20319;-68
2022/03/12 08:11:28;;;;;;;11.75;10.50;;;7.20;99.90;;;;;;5075739;28;20210;-69
2022/03/12 08:14:03;;;;;;;17.05;10.98;;;7.00;99.90;;;;;;5076274;28;20210;-69
2022/03/12 08:16:33;;;;;;;13.05;10.85;;;7.10;99.90;;;;;;5076422;28;20200;-69
2022/03/12 08:19:03;;;;;;;11.93;10.38;;;7.10;99.90;;;;;;5077512;28;20203;-69
2022/03/12 08:21:30;;;;;;;14.35;10.48;;;7.20;99.90;;;;;;5075696;28;20566;-68
2022/03/12 08:23:58;;;;;;;16.08;11.07;;;7.20;99.90;;;;;;5074531;28;20216;-68
2022/03/12 08:26:25;;;;;;;17.33;12.00;;;7.30;99.90;;;;;;5074400;28;20200;-67
2022/03/12 08:28:55;;;;;;;14.32;12.05;;;7.50;99.90;;;;;;5074747;28;20277;-68
2022/03/12 08:31:22;;;;;;;13.40;11.05;;;7.50;99.90;;;;;;5074254;28;20212;-67
2022/03/12 08:33:48;;;;;;;15.52;11.40;;;7.40;99.90;;;;;;5074180;28;20252;-67
2022/03/12 08:36:15;;;;;;;13.50;11.10;;;7.40;99.90;;;;;;5074463;28;20200;-68
2022/03/12 08:38:42;;;;;;;11.98;10.70;;;7.60;99.90;;;;;;5074688;28;20557;-68
2022/03/12 08:41:12;;;;;;;19.95;12.60;;;7.90;99.90;;;;;;5073331;28;20211;-67
2022/03/12 08:43:38;;;;;;;12.98;11.15;;;8.00;99.90;;;;;;5074057;28;20222;-67
2022/03/12 08:46:07;;;;;;;17.77;11.00;;;8.30;99.90;;;;;;5074116;28;20203;-68
2022/03/12 08:48:35;;;;;;;23.58;11.50;;;8.60;99.90;;;;;;5072825;28;20203;-67
2022/03/12 08:51:03;;;;;;;18.02;11.25;;;8.70;99.90;;;;;;5074036;28;20199;-67
2022/03/12 08:53:30;;;;;;;16.95;12.55;;;8.90;99.90;;;;;;5074003;28;20218;-67
2022/03/12 08:55:57;;;;;;;19.05;12.35;;;9.10;99.90;;;;;;5073929;28;20203;-68
2022/03/12 08:58:23;;;;;;;15.45;12.10;;;9.10;99.90;;;;;;5073990;28;20196;-68
2022/03/12 09:00:52;;;;;;;16.13;10.82;;;8.90;99.90;;;;;;5073686;28;20192;-68
2022/03/12 09:03:20;;;;;;;11.95;10.75;;;9.00;99.90;;;;;;5074365;28;20274;-70
2022/03/12 09:05:48;;;;;;;16.13;12.90;;;9.10;99.90;;;;;;5074262;28;20231;-68
2022/03/12 09:08:17;;;;;;;12.38;10.35;;;9.30;99.90;;;;;;5073932;28;20210;-68
2022/03/12 09:10:45;;;;;;;12.27;10.98;;;9.50;99.90;;;;;;5074080;28;20196;-69
2022/03/12 09:13:15;;;;;;;15.20;11.50;;;9.50;99.90;;;;;;5074090;28;20257;-68
2022/03/12 09:15:42;;;;;;;15.07;11.52;;;9.50;99.90;;;;;;5072519;28;20204;-68
2022/03/12 09:18:09;;;;;;;13.85;11.20;;;9.50;99.90;;;;;;5073841;28;20204;-68
2022/03/12 09:20:46;;;;;;;13.68;12.20;;;9.50;99.90;;;;;;5073394;28;20216;-68
2022/03/12 09:23:15;;;;;;;14.45;12.95;;;9.50;99.90;;;;;;5074078;28;20613;-68
2022/03/12 09:25:42;;;;;;;17.65;11.75;;;9.60;99.90;;;;;;5073692;28;20219;-68
2022/03/12 09:28:09;;;;;;;13.43;12.02;;;9.90;99.90;;;;;;5072729;28;20647;-69
2022/03/12 09:30:36;;;;;;;15.45;11.95;;;10.10;99.90;;;;;;5073363;28;20208;-69
2022/03/12 09:33:03;;;;;;;16.95;11.35;;;10.00;99.90;;;;;;5074010;28;20203;-68
2022/03/12 09:35:30;;;;;;;17.48;12.07;;;10.20;99.90;;;;;;5073479;28;20211;-68
2022/03/12 09:37:56;;;;;;;15.85;12.20;;;10.30;99.90;;;;;;5073088;28;20200;-67
2022/03/12 09:40:23;;;;;;;28.85;13.77;;;10.30;99.90;;;;;;5072009;28;20207;-68
2022/03/12 09:42:49;;;;;;;16.45;12.95;;;10.30;99.90;;;;;;5073648;28;20210;-66
2022/03/12 09:45:16;;;;;;;15.18;13.30;;;10.40;99.90;;;;;;5072973;28;20227;-68
2022/03/12 09:47:43;;;;;;;19.55;13.70;;;10.50;99.90;;;;;;5073398;28;20210;-67
2022/03/12 09:50:10;;;;;;;17.95;12.32;;;10.50;99.90;;;;;;5072796;28;20264;-67
2022/03/12 09:52:36;;;;;;;18.63;13.10;;;10.70;99.90;;;;;;5073057;28;20234;-67
2022/03/12 09:55:04;;;;;;;21.73;14.60;;;10.90;99.90;;;;;;5073188;28;20204;-67
2022/03/12 09:57:30;;;;;;;19.60;14.05;;;10.60;99.90;;;;;;5071455;28;20629;-67
2022/03/12 09:59:57;;;;;;;16.77;13.35;;;10.80;99.90;;;;;;5073476;28;20746;-67
2022/03/12 10:02:23;;;;;;;15.82;14.18;;;11.20;99.90;;;;;;5072990;28;20219;-67
2022/03/12 10:04:50;;;;;;;14.82;13.23;;;11.20;99.90;;;;;;5072506;28;20590;-68
2022/03/12 10:07:17;;;;;;;15.73;13.05;;;10.90;99.90;;;;;;5072772;28;20231;-67
2022/03/12 10:09:43;;;;;;;16.48;12.52;;;11.00;99.90;;;;;;5072820;28;20203;-67
2022/03/12 10:12:10;;;;;;;17.73;13.55;;;11.10;99.90;;;;;;5071879;28;20538;-67
2022/03/12 10:14:36;;;;;;;16.60;12.82;;;11.00;99.90;;;;;;5076430;28;20200;-68
2022/03/12 10:17:03;;;;;;;17.83;12.90;;;11.10;99.90;;;;;;5076485;28;20281;-67
2022/03/12 10:19:36;;;;;;;15.68;12.73;;;11.20;99.90;;;;;;5076338;28;20608;-67
2022/03/12 10:22:04;;;;;;;14.73;13.18;;;11.50;99.90;;;;;;5076241;28;20275;-68
2022/03/12 10:24:31;;;;;;;15.50;12.27;;;11.60;99.90;;;;;;5075757;28;20594;-67
2022/03/12 10:26:57;;;;;;;15.50;12.57;;;11.90;99.90;;;;;;5074623;28;20618;-68
2022/03/12 10:29:23;;;;;;;15.60;13.10;;;12.30;99.90;;;;;;5075730;28;21144;-68
2022/03/12 10:31:50;;;;;;;18.70;14.37;;;12.50;99.90;;;;;;5076119;28;20616;-68
2022/03/12 10:34:22;;;;;;;15.00;12.50;;;12.70;99.90;;;;;;5075728;28;21206;-67
2022/03/12 10:36:59;;;;;;;15.47;13.50;;;12.60;99.90;;;;;;5076332;28;20567;-67
2022/03/12 10:39:33;;;;;;;16.57;12.13;;;12.70;99.90;;;;;;5076061;28;21184;-67
2022/03/12 10:42:07;;;;;;;15.30;13.70;;;12.90;99.90;;;;;;5075833;28;20595;-67
2022/03/12 10:44:38;;;;;;;17.47;13.67;;;12.90;99.90;;;;;;5076039;28;20669;-68
2022/03/12 10:47:40;;;;;;;14.77;13.27;;;13.40;99.90;;;;;;5076141;28;20932;-67
2022/03/12 10:50:32;;;;;;;18.90;14.23;;;13.00;99.90;;;;;;5054010;28;20632;-68
2022/03/12 10:52:59;;;;;;;15.03;13.27;;;13.50;99.90;;;;;;5076203;28;20622;-67
2022/03/12 10:55:30;;;;;;;14.43;12.93;;;13.50;99.90;;;;;;5075195;28;21016;-68
2022/03/12 10:58:15;;;;;;;16.87;13.43;;;13.40;99.90;;;;;;5075537;28;21036;-68
2022/03/12 11:00:50;;;;;;;24.20;13.33;;;13.40;99.90;;;;;;5075932;28;20618;-68
2022/03/12 11:03:22;;;;;;;16.10;13.03;;;13.60;99.90;;;;;;5075724;28;20629;-68
2022/03/12 11:05:51;;;;;;;28.30;13.50;;;13.60;99.90;;;;;;5075321;28;20674;-68
2022/03/12 11:08:29;;;;;;;14.43;12.93;;;13.40;99.90;;;;;;5075390;28;21176;-67
2022/03/12 11:11:06;;;;;;;16.10;13.30;;;13.70;99.90;;;;;;5075516;28;20671;-67
2022/03/12 11:13:42;;;;;;;15.67;12.43;;;14.30;99.90;;;;;;5075569;28;21168;-67
2022/03/12 11:16:26;;;;;;;13.63;12.30;;;14.90;99.90;;;;;;5075570;28;20621;-67
2022/03/12 11:18:53;;;;;;;17.90;12.70;;;15.00;99.90;;;;;;5075318;28;21012;-68
2022/03/12 11:21:44;;;;;;;16.97;13.53;;;15.50;99.90;;;;;;5075132;28;20679;-68
2022/03/12 11:24:15;;;;;;;14.63;13.13;;;16.20;99.90;;;;;;5074946;28;20666;-67
2022/03/12 11:26:50;;;;;;;16.23;13.80;;;15.50;99.90;;;;;;5075082;28;21157;-68
2022/03/12 11:29:18;;;;;;;16.90;13.47;;;15.20;99.90;;;;;;5075087;28;20566;-68
2022/03/12 11:31:46;;;;;;;17.07;14.10;;;15.20;99.90;;;;;;5075009;28;20613;-67
2022/03/12 11:34:19;;;;;;;15.70;14.00;;;15.00;99.90;;;;;;5074911;28;20630;-68
2022/03/12 11:37:08;;;;;;;15.97;12.70;;;15.40;99.90;;;;;;5074627;28;20703;-68
2022/03/12 11:39:39;;;;;;;14.60;13.20;;;15.40;99.90;;;;;;5067186;28;21181;-67
2022/03/12 11:42:16;;;;;;;14.33;13.10;;;15.10;99.90;;;;;;5075010;28;20671;-69
2022/03/12 11:44:49;;;;;;;15.73;14.13;;;15.10;99.90;;;;;;5075031;28;20626;-68
2022/03/12 11:47:21;;;;;;;14.03;12.53;;;15.10;99.90;;;;;;5074921;28;20610;-67
2022/03/12 11:49:48;;;;;;;18.33;13.40;;;15.10;99.90;;;;;;5074250;28;20934;-68
2022/03/12 11:52:16;;;;;;;15.57;14.00;;;15.20;99.90;;;;;;5074566;28;20648;-67
2022/03/12 11:54:44;;;;;;;15.40;13.80;;;15.50;99.90;;;;;;5074650;28;20622;-68
2022/03/12 11:57:12;;;;;;;15.70;13.50;;;15.70;99.90;;;;;;5074467;28;20617;-68
2022/03/12 11:59:39;;;;;;;15.70;12.53;;;15.40;99.90;;;;;;5074346;28;20684;-68
2022/03/12 12:02:22;;;;;;;16.20;14.47;;;15.80;99.90;;;;;;5073682;28;20950;-68
2022/03/12 12:04:52;;;;;;;15.70;14.10;;;16.20;99.90;;;;;;5074029;28;20657;-68
2022/03/12 12:07:19;;;;;;;19.23;14.80;;;16.30;99.90;;;;;;5073607;28;20740;-68
2022/03/12 12:09:46;;;;;;;17.47;15.77;;;17.10;99.90;;;;;;5074198;28;20617;-68
2022/03/12 12:12:13;;;;;;;18.97;13.37;;;16.80;99.90;;;;;;5073994;28;20623;-68
2022/03/12 12:14:41;;;;;;;15.20;13.60;;;16.50;99.90;;;;;;5074148;28;20629;-67
2022/03/12 12:17:08;;;;;;;15.73;14.17;;;16.90;99.90;;;;;;5072866;28;21154;-67
2022/03/12 12:19:34;;;;;;;15.67;14.03;;;17.20;99.90;;;;;;5074155;28;20617;-68
2022/03/12 12:22:02;;;;;;;23.43;14.80;;;17.30;99.90;;;;;;5072562;28;20610;-67
2022/03/12 12:24:33;;;;;;;16.27;14.40;;;17.40;99.90;;;;;;5073901;28;20656;-68
2022/03/12 12:27:07;;;;;;;17.03;15.27;;;16.90;99.90;;;;;;5073932;28;20618;-66
2022/03/12 12:29:52;;;;;;;17.37;15.57;;;16.60;99.90;;;;;;5074045;28;20637;-67
2022/03/12 12:32:20;;;;;;;17.80;15.63;;;16.00;99.90;;;;;;5074620;28;20614;-66
2022/03/12 12:35:04;;;;;;;17.93;14.97;;;16.20;99.90;;;;;;5073246;28;20618;-66
2022/03/12 12:37:46;;;;;;;16.47;14.87;;;16.30;99.90;;;;;;5073775;28;20618;-66
2022/03/12 12:40:17;;;;;;;16.43;14.73;;;16.30;99.90;;;;;;5073840;28;20590;-66
2022/03/12 12:42:44;;;;;;;16.60;15.00;;;16.30;99.90;;;;;;5073435;28;20630;-66
2022/03/12 12:45:16;;;;;;;15.73;13.83;;;15.80;99.90;;;;;;5073684;28;20665;-67